Terminal Aerodrome Forecast
Issued by NWS Twin Cities, MN

Home | Current Version | Previous Version | Text Only | Print | Product List | Glossary Off
Versions: 1 2 3 4 5 6 7 8 9 10 11 12 13 14 15 16 17 18 19 20 21 22 23 24 25 26 27 28

000
FTUS43 KMPX 270520
TAFMSP
TAF
KMSP 270520Z 2706/2812 29012KT P6SM SKC
     FM271400 30015G24KT P6SM SCT025 BKN035
     FM272200 30013G22KT P6SM -SHRA SCT025 OVC040
     FM280200 31011KT P6SM BKN040=

USA.gov is the U.S. government's official web portal to all federal, state and local government web resources and services.